Time;durP1;ratioP1;P1;durP2;ratioP2;P2;SDS_P1;SDS_P2;PMS_P1;PMS_P2;Temp;Humidity;BMP_temperature;BMP_pressure;BME280_temperature;BME280_humidity;BME280_pressure;Samples;Min_cycle;Max_cycle;Signal;HPM_P1;HPM_P2
2022/08/13 00:02:10;;;;;;;5.78;5.28;;;23.50;67.50;;;;;;4984517;28;20037;-79
2022/08/13 00:04:46;;;;;;;6.45;5.85;;;23.50;67.50;;;;;;4962043;28;20129;-78
2022/08/13 00:07:12;;;;;;;5.90;5.38;;;23.50;67.50;;;;;;4974873;28;20030;-78
2022/08/13 00:09:42;;;;;;;6.82;5.53;;;23.50;67.70;;;;;;4972600;28;20038;-78
2022/08/13 00:12:56;;;;;;;6.13;5.63;;;23.50;67.90;;;;;;4983439;28;20042;-77
2022/08/13 00:15:39;;;;;;;8.93;5.22;;;23.50;67.90;;;;;;4983070;28;20114;-78
2022/08/13 00:18:11;;;;;;;5.65;5.15;;;23.50;68.00;;;;;;4982947;28;20050;-78
2022/08/13 00:20:43;;;;;;;5.10;4.70;;;23.40;68.10;;;;;;4969231;28;20058;-78
2022/08/13 00:23:13;;;;;;;5.35;4.88;;;23.40;68.60;;;;;;4998799;28;20539;-78
2022/08/13 00:25:40;;;;;;;7.25;5.15;;;23.40;68.40;;;;;;4972781;28;20042;-78
2022/08/13 00:28:06;;;;;;;5.30;4.80;;;23.40;68.40;;;;;;4984951;28;20030;-78
2022/08/13 00:30:35;;;;;;;5.93;4.82;;;23.40;68.40;;;;;;4974994;28;20034;-79
2022/08/13 00:33:08;;;;;;;4.90;4.50;;;23.40;68.60;;;;;;4973733;28;20046;-78
2022/08/13 00:35:37;;;;;;;5.13;4.72;;;23.40;68.80;;;;;;4972857;28;20081;-78
2022/08/13 00:38:07;;;;;;;5.70;5.10;;;23.40;68.80;;;;;;4976961;28;20030;-78
2022/08/13 00:40:33;;;;;;;5.63;5.13;;;23.40;68.40;;;;;;4971768;28;20034;-78
2022/08/13 00:43:03;;;;;;;5.57;5.07;;;23.40;68.50;;;;;;4986848;28;20445;-78
2022/08/13 00:45:32;;;;;;;5.22;4.18;;;23.40;68.60;;;;;;4974353;28;20054;-78
2022/08/13 00:50:44;;;;;;;5.50;5.00;;;23.40;68.90;;;;;;4974948;28;20512;-78
2022/08/13 00:53:16;;;;;;;6.50;4.82;;;23.30;68.90;;;;;;4973677;28;20031;-78
2022/08/13 00:55:48;;;;;;;6.47;5.60;;;23.30;69.10;;;;;;4973840;28;20482;-78
2022/08/13 00:58:16;;;;;;;6.13;5.53;;;23.30;69.00;;;;;;4973127;28;20274;-78
2022/08/13 01:00:46;;;;;;;7.30;5.07;;;23.30;69.00;;;;;;4972696;28;20038;-78
2022/08/13 01:03:13;;;;;;;5.47;5.00;;;23.30;69.20;;;;;;4991947;28;20049;-78
2022/08/13 01:05:43;;;;;;;5.53;5.03;;;23.30;69.20;;;;;;4978425;28;20041;-79
2022/08/13 01:08:10;;;;;;;5.70;5.20;;;23.30;69.20;;;;;;4975715;28;20026;-78
2022/08/13 01:10:37;;;;;;;4.75;4.25;;;23.30;69.20;;;;;;4971152;28;20038;-79
2022/08/13 01:13:07;;;;;;;5.70;5.20;;;23.20;69.20;;;;;;4971326;28;20035;-78
2022/08/13 01:15:34;;;;;;;5.57;5.07;;;23.20;69.20;;;;;;4989109;28;20085;-78
2022/08/13 01:18:01;;;;;;;4.78;4.38;;;23.20;69.30;;;;;;4989267;28;20034;-78
2022/08/13 01:20:28;;;;;;;6.22;5.53;;;23.20;69.40;;;;;;4968435;28;20027;-77
2022/08/13 01:22:55;;;;;;;5.30;4.90;;;23.20;69.40;;;;;;4970916;28;20031;-78
2022/08/13 01:25:21;;;;;;;5.55;5.07;;;23.20;69.50;;;;;;4973402;28;20429;-79
2022/08/13 01:27:52;;;;;;;5.53;5.03;;;23.20;69.50;;;;;;4971212;28;20160;-78
2022/08/13 01:30:21;;;;;;;4.90;4.40;;;23.20;69.50;;;;;;4978591;28;20019;-78
2022/08/13 01:32:47;;;;;;;5.07;4.68;;;23.20;69.50;;;;;;4969005;28;20482;-78
2022/08/13 01:35:16;;;;;;;5.45;4.78;;;23.20;69.60;;;;;;4969295;28;20029;-78
2022/08/13 01:37:43;;;;;;;6.07;5.03;;;23.20;69.60;;;;;;4970226;28;20375;-78
2022/08/13 01:40:10;;;;;;;5.03;4.53;;;23.10;69.70;;;;;;4971050;28;20034;-78
2022/08/13 01:42:43;;;;;;;5.20;4.70;;;23.10;69.90;;;;;;4979608;28;20038;-77
2022/08/13 01:45:11;;;;;;;4.80;4.35;;;23.10;69.80;;;;;;4969068;28;20031;-78
2022/08/13 01:50:29;;;;;;;5.40;4.90;;;23.10;69.90;;;;;;4974450;28;20122;-78
2022/08/13 01:53:13;;;;;;;5.32;4.38;;;23.10;69.90;;;;;;4971545;28;20066;-78
2022/08/13 01:55:40;;;;;;;;;;;23.10;70.00;;;;;;4995968;28;20041;-79
2022/08/13 01:58:34;;;;;;;6.10;5.50;;;23.10;70.60;;;;;;4973274;28;20272;-80
2022/08/13 02:01:02;;;;;;;6.13;4.88;;;23.00;70.00;;;;;;4974189;28;20042;-79
2022/08/13 02:03:30;;;;;;;5.22;4.63;;;23.00;70.40;;;;;;4975186;28;20033;-79
2022/08/13 02:05:56;;;;;;;5.78;5.28;;;23.10;70.40;;;;;;4974740;28;20039;-79
2022/08/13 02:08:23;;;;;;;5.82;4.43;;;23.00;70.20;;;;;;4974545;28;20031;-79
2022/08/13 02:10:52;;;;;;;5.78;5.28;;;23.00;70.20;;;;;;4985354;28;20127;-79
2022/08/13 02:13:29;;;;;;;5.25;4.55;;;23.00;70.20;;;;;;4970833;28;20023;-79
2022/08/13 02:15:57;;;;;;;5.90;4.80;;;23.00;70.80;;;;;;4966165;28;20126;-78
2022/08/13 02:18:24;;;;;;;5.15;4.65;;;23.00;70.50;;;;;;4980334;28;20044;-79
2022/08/13 02:20:57;;;;;;;5.18;4.68;;;23.00;70.50;;;;;;4969379;28;20457;-79
2022/08/13 02:23:26;;;;;;;5.13;4.63;;;23.00;70.40;;;;;;4973885;28;20026;-79
2022/08/13 02:25:52;;;;;;;6.78;5.50;;;23.00;70.60;;;;;;4972901;28;20037;-79
2022/08/13 02:28:20;;;;;;;8.88;4.80;;;23.00;70.60;;;;;;4975881;28;20027;-79
2022/08/13 02:30:47;;;;;;;4.90;4.30;;;22.90;70.50;;;;;;4971704;28;20589;-79
2022/08/13 02:33:14;;;;;;;6.85;5.03;;;23.00;70.80;;;;;;4988996;28;20035;-79
2022/08/13 02:35:42;;;;;;;4.97;4.47;;;22.90;70.60;;;;;;4974766;28;20027;-79
2022/08/13 02:38:11;;;;;;;5.20;4.68;;;22.90;70.70;;;;;;4980652;28;20023;-79
2022/08/13 02:43:24;;;;;;;5.60;4.95;;;22.90;70.60;;;;;;4974778;28;20058;-80
2022/08/13 02:45:53;;;;;;;5.85;4.45;;;22.90;70.70;;;;;;4976523;28;20058;-79
2022/08/13 02:48:24;;;;;;;5.40;4.90;;;22.80;70.70;;;;;;4976750;28;20026;-79
2022/08/13 02:50:55;;;;;;;5.20;4.72;;;22.80;70.70;;;;;;4968991;28;20489;-79
2022/08/13 02:53:23;;;;;;;5.85;5.20;;;22.80;70.80;;;;;;4974998;28;20081;-79
2022/08/13 02:55:50;;;;;;;5.38;4.65;;;22.80;70.80;;;;;;4979143;28;20034;-78
2022/08/13 02:58:17;;;;;;;5.00;4.25;;;22.80;70.80;;;;;;4971814;28;20023;-79
2022/08/13 03:00:53;;;;;;;6.30;4.05;;;22.80;70.80;;;;;;4972400;28;20027;-79
2022/08/13 03:03:19;;;;;;;4.47;4.07;;;22.70;70.80;;;;;;4967386;28;20034;-79
2022/08/13 03:05:45;;;;;;;6.47;4.03;;;22.70;70.90;;;;;;4975625;28;20038;-78
2022/08/13 03:08:12;;;;;;;7.63;4.03;;;22.70;71.00;;;;;;4980235;28;20134;-79
2022/08/13 03:10:39;;;;;;;4.40;4.00;;;22.70;71.00;;;;;;4970493;28;20065;-79
2022/08/13 03:13:22;;;;;;;8.82;4.20;;;22.70;71.20;;;;;;4966687;28;20031;-79
2022/08/13 03:15:53;;;;;;;4.20;3.80;;;22.70;71.20;;;;;;4973089;28;20046;-79
2022/08/13 03:18:19;;;;;;;4.28;3.88;;;22.70;71.30;;;;;;4971019;28;20360;-79
2022/08/13 03:20:44;;;;;;;5.82;4.10;;;22.70;71.10;;;;;;4972237;28;20121;-78
2022/08/13 03:23:10;;;;;;;5.57;4.30;;;22.70;71.10;;;;;;4976360;28;20107;-79
2022/08/13 03:25:37;;;;;;;4.57;4.13;;;22.70;71.00;;;;;;4973813;28;20465;-79
2022/08/13 03:28:05;;;;;;;4.65;4.20;;;22.70;71.00;;;;;;4969990;28;20023;-79
2022/08/13 03:30:34;;;;;;;5.05;4.55;;;22.70;71.00;;;;;;4987624;28;20027;-79
2022/08/13 03:33:08;;;;;;;6.32;4.25;;;22.70;71.00;;;;;;4975461;28;20077;-79
2022/08/13 03:35:36;;;;;;;5.13;4.63;;;22.70;71.10;;;;;;4962169;28;20035;-79
2022/08/13 03:38:03;;;;;;;7.65;4.78;;;22.70;71.10;;;;;;4973724;28;20031;-79
2022/08/13 03:41:00;;;;;;;5.55;4.72;;;22.70;71.00;;;;;;4969827;28;20026;-79
2022/08/13 03:43:16;;;;;;;5.60;3.83;;;22.70;71.10;;;;;;4974544;28;20031;-79
2022/08/13 03:45:44;;;;;;;8.65;4.95;;;22.60;71.10;;;;;;4972250;28;20482;-79
2022/08/13 03:48:12;;;;;;;6.57;4.50;;;22.70;71.30;;;;;;4973343;28;20050;-80
2022/08/13 03:50:42;;;;;;;5.20;4.25;;;22.70;71.20;;;;;;4972225;28;20031;-79
2022/08/13 03:53:09;;;;;;;4.65;4.07;;;22.70;71.40;;;;;;4977109;28;20026;-79
2022/08/13 03:55:37;;;;;;;4.95;4.50;;;22.70;71.70;;;;;;4988438;28;20023;-78
2022/08/13 03:58:05;;;;;;;4.35;3.92;;;22.70;71.60;;;;;;4971178;28;20093;-79
2022/08/13 04:00:33;;;;;;;4.30;3.90;;;22.70;71.90;;;;;;4978312;28;20030;-79
2022/08/13 04:03:00;;;;;;;5.10;4.65;;;22.70;72.00;;;;;;4978505;28;20031;-79
2022/08/13 04:05:26;;;;;;;5.22;4.72;;;22.70;71.70;;;;;;4979476;28;20023;-79
2022/08/13 04:07:52;;;;;;;4.57;4.18;;;22.70;71.60;;;;;;4978011;28;20057;-79
2022/08/13 04:10:19;;;;;;;5.75;4.32;;;22.70;71.90;;;;;;4976161;28;20030;-79
2022/08/13 04:12:46;;;;;;;5.57;4.43;;;22.70;71.80;;;;;;4969857;28;20156;-78
2022/08/13 04:15:12;;;;;;;8.85;4.32;;;22.60;71.80;;;;;;4972397;28;20023;-78
2022/08/13 04:17:40;;;;;;;5.07;4.60;;;22.60;72.00;;;;;;4973869;28;20210;-78
2022/08/13 04:20:09;;;;;;;6.47;4.68;;;22.70;72.10;;;;;;4970467;28;20102;-78
2022/08/13 04:22:37;;;;;;;5.22;4.72;;;22.60;71.90;;;;;;4979626;28;20027;-78
2022/08/13 04:25:05;;;;;;;5.55;5.05;;;22.60;71.80;;;;;;4969536;28;20055;-78
2022/08/13 04:27:32;;;;;;;5.75;4.03;;;22.60;72.20;;;;;;4968922;28;21055;-78
2022/08/13 04:29:58;;;;;;;5.05;4.53;;;22.60;72.20;;;;;;4986930;28;20035;-78
2022/08/13 04:32:24;;;;;;;5.88;5.22;;;22.60;72.00;;;;;;4977783;28;20078;-78
2022/08/13 04:34:51;;;;;;;7.95;5.07;;;22.60;72.10;;;;;;4981382;28;20153;-78
2022/08/13 04:37:17;;;;;;;7.50;4.85;;;22.60;72.00;;;;;;4978032;28;20027;-78
2022/08/13 04:39:44;;;;;;;5.03;4.60;;;22.60;72.00;;;;;;4984078;28;20177;-78
2022/08/13 04:42:11;;;;;;;4.95;4.50;;;22.60;72.10;;;;;;4976984;28;20064;-78
2022/08/13 04:44:37;;;;;;;6.00;4.97;;;22.60;72.40;;;;;;4980052;28;20033;-78
2022/08/13 04:47:04;;;;;;;5.35;4.85;;;22.60;72.20;;;;;;4976667;28;20490;-78
2022/08/13 04:49:31;;;;;;;5.78;5.28;;;22.60;72.20;;;;;;4979644;28;20323;-78
2022/08/13 04:51:57;;;;;;;5.80;5.20;;;22.60;72.10;;;;;;4974026;28;20045;-78
2022/08/13 04:54:22;;;;;;;5.07;4.57;;;22.60;72.10;;;;;;4972143;28;20027;-79
2022/08/13 04:56:48;;;;;;;5.90;5.40;;;22.60;72.50;;;;;;4978727;28;20034;-78
2022/08/13 04:59:14;;;;;;;5.43;4.93;;;22.60;72.50;;;;;;4973044;28;20061;-78
2022/08/13 05:01:40;;;;;;;7.35;5.15;;;22.60;72.50;;;;;;4975453;28;20039;-78
2022/08/13 05:04:06;;;;;;;5.65;5.05;;;22.60;72.30;;;;;;4976653;28;20035;-78
2022/08/13 05:06:32;;;;;;;9.88;4.53;;;22.60;72.20;;;;;;4977920;28;20037;-78
2022/08/13 05:09:01;;;;;;;5.72;5.10;;;22.60;72.30;;;;;;4973568;28;20034;-78
2022/08/13 05:11:27;;;;;;;6.10;5.50;;;22.60;72.40;;;;;;4969730;28;20035;-78
2022/08/13 05:13:53;;;;;;;5.32;4.90;;;22.60;72.40;;;;;;4971610;28;20705;-78
2022/08/13 05:16:19;;;;;;;5.13;4.70;;;22.50;72.50;;;;;;4979985;28;20026;-78
2022/08/13 05:18:54;;;;;;;9.63;5.78;;;22.50;72.80;;;;;;4981057;28;20117;-78
2022/08/13 05:21:22;;;;;;;7.07;4.63;;;22.50;72.50;;;;;;4972679;28;20061;-77
2022/08/13 05:23:53;;;;;;;9.88;5.53;;;22.50;72.70;;;;;;4973429;28;20044;-77
2022/08/13 05:26:23;;;;;;;5.43;4.93;;;22.50;72.70;;;;;;4971519;28;20034;-77
2022/08/13 05:28:50;;;;;;;5.10;4.43;;;22.50;72.60;;;;;;4983799;28;20026;-78
2022/08/13 05:31:19;;;;;;;5.70;5.18;;;22.60;72.90;;;;;;4975894;28;20130;-77
2022/08/13 05:33:45;;;;;;;6.28;4.65;;;22.60;72.70;;;;;;4972518;28;20031;-78
2022/08/13 05:36:11;;;;;;;6.13;5.65;;;22.60;72.70;;;;;;4969692;28;20402;-77
2022/08/13 05:38:39;;;;;;;5.55;5.05;;;22.50;72.70;;;;;;4980446;28;20500;-77
2022/08/13 05:41:07;;;;;;;8.68;5.22;;;22.60;73.00;;;;;;4975562;28;20031;-77
2022/08/13 05:43:36;;;;;;;6.43;5.00;;;22.60;72.90;;;;;;4975115;28;20054;-77
2022/08/13 05:46:05;;;;;;;5.97;5.45;;;22.60;72.80;;;;;;4971160;28;20038;-77
2022/08/13 05:48:38;;;;;;;6.47;5.88;;;22.60;73.00;;;;;;4987097;28;20559;-77
2022/08/13 05:51:08;;;;;;;6.70;6.03;;;22.60;73.00;;;;;;4969193;28;20039;-77
2022/08/13 05:53:37;;;;;;;5.85;4.60;;;22.50;72.90;;;;;;4993675;28;20065;-77
2022/08/13 05:56:05;;;;;;;5.85;5.25;;;22.60;73.30;;;;;;4982582;28;20041;-77
2022/08/13 05:58:31;;;;;;;7.68;6.30;;;22.60;73.00;;;;;;4971296;28;20104;-77
2022/08/13 06:03:42;;;;;;;5.68;5.15;;;22.60;73.20;;;;;;4980918;28;20061;-77
2022/08/13 06:06:11;;;;;;;6.90;5.00;;;22.60;73.20;;;;;;4979814;28;20058;-77
2022/08/13 06:08:42;;;;;;;7.50;5.53;;;22.50;73.20;;;;;;4972518;28;20024;-78
2022/08/13 06:11:11;;;;;;;6.55;5.95;;;22.60;73.40;;;;;;4971723;28;20383;-77
2022/08/13 06:13:41;;;;;;;9.13;5.10;;;22.60;73.50;;;;;;4968539;28;20019;-78
2022/08/13 06:16:09;;;;;;;6.07;5.47;;;22.60;73.60;;;;;;4970668;28;20106;-77
2022/08/13 06:18:37;;;;;;;5.13;4.63;;;22.60;73.70;;;;;;4970469;28;20379;-77
2022/08/13 06:21:06;;;;;;;5.30;4.80;;;22.60;73.70;;;;;;4976497;28;20061;-77
2022/08/13 06:23:34;;;;;;;5.82;5.32;;;22.60;73.60;;;;;;4972535;28;20445;-77
2022/08/13 06:26:02;;;;;;;6.53;5.50;;;22.60;73.50;;;;;;4972396;28;20123;-77
2022/08/13 06:28:30;;;;;;;4.63;4.22;;;22.60;73.40;;;;;;4976066;28;20092;-77
2022/08/13 06:31:00;;;;;;;7.80;6.40;;;22.60;73.50;;;;;;4965455;28;20031;-77
2022/08/13 06:33:28;;;;;;;7.15;5.50;;;22.60;73.40;;;;;;4967232;28;20023;-77
2022/08/13 06:36:04;;;;;;;6.60;5.40;;;22.60;73.40;;;;;;4970299;28;20081;-77
2022/08/13 06:38:33;;;;;;;5.75;5.22;;;22.60;73.30;;;;;;4968578;28;20102;-77
2022/08/13 06:41:01;;;;;;;6.30;5.70;;;22.60;73.30;;;;;;4969846;28;20027;-77
2022/08/13 06:43:39;;;;;;;6.18;5.57;;;22.60;73.30;;;;;;4985025;28;20413;-77
2022/08/13 06:46:05;;;;;;;5.68;5.18;;;22.60;73.30;;;;;;4972793;28;20045;-77
2022/08/13 06:48:35;;;;;;;6.47;5.70;;;22.60;73.20;;;;;;4987532;28;20449;-77
2022/08/13 06:51:04;;;;;;;6.15;5.65;;;22.60;73.30;;;;;;4975389;28;20029;-77
2022/08/13 06:53:32;;;;;;;6.25;5.03;;;22.60;73.40;;;;;;4975074;28;20450;-77
2022/08/13 06:55:58;;;;;;;7.07;5.60;;;22.60;73.30;;;;;;4981270;28;20133;-76
2022/08/13 06:58:28;;;;;;;6.68;5.97;;;22.70;73.30;;;;;;4976619;28;20018;-77
2022/08/13 07:00:56;;;;;;;5.20;4.70;;;22.70;73.30;;;;;;4974025;28;20066;-77
2022/08/13 07:03:31;;;;;;;5.93;5.32;;;22.70;73.30;;;;;;4968690;28;20057;-77
2022/08/13 07:05:57;;;;;;;6.05;5.45;;;22.60;73.30;;;;;;4969969;28;20030;-77
2022/08/13 07:08:25;;;;;;;6.53;5.20;;;22.70;73.30;;;;;;4970685;28;20022;-77
2022/08/13 07:11:21;;;;;;;7.30;6.60;;;22.70;73.30;;;;;;4971184;28;20045;-77
2022/08/13 07:13:39;;;;;;;5.70;4.95;;;22.70;73.30;;;;;;4970166;28;20280;-77
2022/08/13 07:16:08;;;;;;;6.32;4.90;;;22.70;73.30;;;;;;4975226;28;20030;-77
2022/08/13 07:18:35;;;;;;;5.18;4.68;;;22.70;73.30;;;;;;4969550;28;20119;-76
2022/08/13 07:21:07;;;;;;;5.50;4.90;;;22.70;73.40;;;;;;4968967;28;20070;-77
2022/08/13 07:23:33;;;;;;;5.38;4.88;;;22.70;73.50;;;;;;4972843;28;20113;-76
2022/08/13 07:26:00;;;;;;;6.53;4.90;;;22.70;73.50;;;;;;4975998;28;20064;-77
2022/08/13 07:28:31;;;;;;;6.60;4.72;;;22.70;73.50;;;;;;4973029;28;20027;-77
2022/08/13 07:30:57;;;;;;;8.13;5.28;;;22.70;73.70;;;;;;4971190;28;20556;-77
2022/08/13 07:33:24;;;;;;;7.72;5.13;;;22.70;73.60;;;;;;4971901;28;20090;-77
2022/08/13 07:35:50;;;;;;;5.88;4.50;;;22.70;73.70;;;;;;4970880;28;20027;-78
2022/08/13 07:38:16;;;;;;;5.05;4.50;;;22.70;73.60;;;;;;4973630;28;20034;-78
2022/08/13 07:40:48;;;;;;;7.55;5.20;;;22.70;73.50;;;;;;4966853;28;20086;-77
2022/08/13 07:43:19;;;;;;;5.95;5.38;;;22.70;73.60;;;;;;4979911;28;20039;-77
2022/08/13 07:45:58;;;;;;;5.85;4.65;;;22.70;73.50;;;;;;4975217;28;20058;-77
2022/08/13 07:48:26;;;;;;;5.57;5.07;;;22.70;73.60;;;;;;4989924;28;20034;-77
2022/08/13 07:50:52;;;;;;;6.63;5.85;;;22.70;73.70;;;;;;4972179;28;20026;-77
2022/08/13 07:53:18;;;;;;;6.25;5.65;;;22.70;73.70;;;;;;4972453;28;20095;-77
2022/08/13 07:55:44;;;;;;;5.45;4.95;;;22.80;73.80;;;;;;4973047;28;20030;-77
2022/08/13 07:58:10;;;;;;;6.43;5.78;;;22.70;73.70;;;;;;4968445;28;20518;-77
2022/08/13 08:00:36;;;;;;;7.07;5.53;;;22.70;73.70;;;;;;4971494;28;20018;-78
2022/08/13 08:03:02;;;;;;;4.85;4.28;;;22.70;73.60;;;;;;4967130;28;20031;-78
2022/08/13 08:05:35;;;;;;;4.53;4.13;;;22.70;73.50;;;;;;4970413;28;20035;-78
2022/08/13 08:08:04;;;;;;;4.45;4.03;;;22.80;73.70;;;;;;4975053;28;20034;-77
2022/08/13 08:10:31;;;;;;;4.85;4.43;;;22.80;73.80;;;;;;4970162;28;20389;-78
2022/08/13 08:13:02;;;;;;;5.75;5.18;;;22.80;73.80;;;;;;4971349;28;20030;-77
2022/08/13 08:15:28;;;;;;;5.32;4.70;;;22.80;73.70;;;;;;4969030;28;20027;-77
2022/08/13 08:17:55;;;;;;;6.45;5.00;;;22.80;73.70;;;;;;4985211;28;20393;-77
2022/08/13 08:20:21;;;;;;;4.68;4.28;;;22.80;73.70;;;;;;4968603;28;20561;-78
2022/08/13 08:22:50;;;;;;;6.45;5.80;;;22.80;73.60;;;;;;4973788;28;20028;-78
2022/08/13 08:25:21;;;;;;;5.30;4.80;;;22.80;73.70;;;;;;4973752;28;20031;-78
2022/08/13 08:27:48;;;;;;;6.72;4.30;;;22.80;73.70;;;;;;4982005;28;20031;-77
2022/08/13 08:30:20;;;;;;;5.55;4.65;;;22.80;73.80;;;;;;4995008;28;20453;-78
2022/08/13 08:32:51;;;;;;;6.25;4.38;;;22.80;73.70;;;;;;4974400;28;20477;-78
2022/08/13 08:35:17;;;;;;;5.38;4.88;;;22.80;73.70;;;;;;4974373;28;20038;-77
2022/08/13 08:43:14;;;;;;;4.93;4.32;;;22.80;73.90;;;;;;4971493;28;20046;-78
2022/08/13 08:45:40;;;;;;;5.18;4.60;;;22.80;73.70;;;;;;4991993;28;20088;-78
2022/08/13 08:48:07;;;;;;;4.65;4.25;;;22.80;73.70;;;;;;4968413;28;20054;-78
2022/08/13 08:50:33;;;;;;;4.45;4.05;;;22.70;73.80;;;;;;4991177;28;20019;-78
2022/08/13 08:53:19;;;;;;;4.32;4.00;;;22.70;73.70;;;;;;4979582;28;20140;-77
2022/08/13 08:55:50;;;;;;;4.68;4.18;;;22.70;73.60;;;;;;4986053;28;20137;-78
2022/08/13 08:58:19;;;;;;;4.55;3.70;;;22.70;73.80;;;;;;4977649;28;20042;-78
2022/08/13 09:00:47;;;;;;;5.25;4.63;;;23.10;72.30;;;;;;4975088;28;20406;-80
2022/08/13 09:03:19;;;;;;;5.88;5.15;;;23.10;72.30;;;;;;4976390;28;20597;-80
2022/08/13 09:05:48;;;;;;;6.70;5.05;;;23.10;72.40;;;;;;4983823;28;20094;-79
2022/08/13 09:08:17;;;;;;;6.65;5.72;;;23.10;72.50;;;;;;4974762;28;20129;-79
2022/08/13 09:10:46;;;;;;;6.45;5.10;;;23.10;72.70;;;;;;4986349;28;20042;-78
2022/08/13 09:13:19;;;;;;;6.63;4.82;;;23.00;72.80;;;;;;4985753;28;20038;-80
2022/08/13 09:15:48;;;;;;;5.55;4.90;;;23.00;73.10;;;;;;4973662;28;20034;-78
2022/08/13 09:18:17;;;;;;;6.25;5.43;;;22.90;73.10;;;;;;4986854;28;20030;-80
2022/08/13 09:20:43;;;;;;;5.75;5.07;;;22.90;73.30;;;;;;4975377;28;20038;-79
2022/08/13 09:23:12;;;;;;;5.40;4.63;;;22.90;73.50;;;;;;4977175;28;20482;-78
2022/08/13 09:25:48;;;;;;;4.68;3.83;;;22.90;73.60;;;;;;4979634;28;20030;-79
2022/08/13 09:28:23;;;;;;;6.80;4.47;;;22.80;73.70;;;;;;4978213;28;20035;-80
2022/08/13 09:30:51;;;;;;;5.68;4.35;;;22.80;73.80;;;;;;4977957;28;20031;-80
2022/08/13 09:33:19;;;;;;;5.00;4.40;;;22.80;74.00;;;;;;4981881;28;20027;-79
2022/08/13 09:35:46;;;;;;;7.20;4.55;;;22.80;74.20;;;;;;4981054;28;20029;-79
2022/08/13 09:38:12;;;;;;;4.85;4.32;;;22.80;74.00;;;;;;4968977;28;20035;-79
2022/08/13 09:40:45;;;;;;;6.38;4.47;;;22.80;74.00;;;;;;4978513;28;20059;-79
2022/08/13 09:43:18;;;;;;;4.45;4.05;;;22.80;74.00;;;;;;4976440;28;20512;-79
2022/08/13 09:45:44;;;;;;;4.83;3.87;;;22.80;74.00;;;;;;4986288;28;20035;-79
2022/08/13 09:48:10;;;;;;;4.88;3.97;;;22.80;74.30;;;;;;4970317;28;20345;-78
2022/08/13 09:50:36;;;;;;;6.43;3.83;;;22.80;74.00;;;;;;4982140;28;20084;-80
2022/08/13 09:53:03;;;;;;;6.57;3.65;;;22.80;74.00;;;;;;4978858;28;20035;-79
2022/08/13 09:55:29;;;;;;;5.05;3.53;;;22.90;74.20;;;;;;4970836;28;20026;-80
2022/08/13 09:57:59;;;;;;;5.25;3.97;;;22.80;74.00;;;;;;4982919;28;20027;-79
2022/08/13 10:00:31;;;;;;;5.15;4.65;;;22.80;74.50;;;;;;4975165;28;20027;-78
2022/08/13 10:03:00;;;;;;;5.43;4.38;;;22.80;74.00;;;;;;4984501;28;20057;-79
2022/08/13 10:05:37;;;;;;;4.85;4.03;;;22.80;73.90;;;;;;4981972;28;20031;-80
2022/08/13 10:08:05;;;;;;;5.22;4.53;;;22.90;73.80;;;;;;4977256;28;20053;-79
2022/08/13 10:10:32;;;;;;;5.85;4.45;;;22.90;73.80;;;;;;4979215;28;20125;-79
2022/08/13 10:12:59;;;;;;;4.60;3.95;;;22.90;73.80;;;;;;4979147;28;20022;-79
2022/08/13 10:15:26;;;;;;;4.60;3.72;;;22.80;73.80;;;;;;4978005;28;20023;-79
2022/08/13 10:18:02;;;;;;;4.90;4.40;;;22.90;74.00;;;;;;4985977;28;20030;-78
2022/08/13 10:20:37;;;;;;;7.45;5.15;;;22.90;73.80;;;;;;4975123;28;20501;-80
2022/08/13 10:23:06;;;;;;;4.90;4.40;;;23.00;73.00;;;;;;4983957;28;20023;-79
2022/08/13 10:25:32;;;;;;;4.63;3.88;;;22.90;73.10;;;;;;4973996;28;20039;-79
2022/08/13 10:27:58;;;;;;;4.45;4.05;;;22.90;73.30;;;;;;4969732;28;20034;-79
2022/08/13 10:30:27;;;;;;;4.32;3.92;;;22.90;73.50;;;;;;4974877;28;20050;-79
2022/08/13 10:32:55;;;;;;;4.70;4.30;;;22.90;73.70;;;;;;4973034;28;20402;-78
2022/08/13 10:35:27;;;;;;;4.80;4.25;;;22.90;73.80;;;;;;4971664;28;20029;-79
2022/08/13 10:37:56;;;;;;;4.53;4.13;;;22.90;74.00;;;;;;4974886;28;20031;-80
2022/08/13 10:40:23;;;;;;;4.97;4.43;;;22.80;74.00;;;;;;4979039;28;20114;-79
2022/08/13 10:42:49;;;;;;;4.35;3.95;;;22.80;74.00;;;;;;4977490;28;20034;-79
2022/08/13 10:45:16;;;;;;;6.97;4.85;;;22.80;74.20;;;;;;4975409;28;20027;-80
2022/08/13 10:47:50;;;;;;;7.95;4.40;;;22.90;74.20;;;;;;4980964;28;20030;-80
2022/08/13 10:50:19;;;;;;;6.47;4.97;;;22.90;73.90;;;;;;5002350;28;20038;-80
2022/08/13 10:52:45;;;;;;;5.30;4.22;;;22.90;73.80;;;;;;4978585;28;20057;-79
2022/08/13 10:55:12;;;;;;;4.50;4.10;;;22.90;73.60;;;;;;4979445;28;20053;-79
2022/08/13 10:57:44;;;;;;;4.95;4.55;;;22.90;73.60;;;;;;4976257;28;20023;-78
2022/08/13 11:00:12;;;;;;;4.75;4.35;;;22.90;73.50;;;;;;4975940;28;20027;-79
2022/08/13 11:02:38;;;;;;;4.78;4.32;;;22.90;73.70;;;;;;4982369;28;20026;-79
2022/08/13 11:05:09;;;;;;;4.80;4.35;;;22.90;73.60;;;;;;4979651;28;20122;-79
2022/08/13 11:07:37;;;;;;;5.03;4.53;;;22.90;73.50;;;;;;4974881;28;20557;-78
2022/08/13 11:10:08;;;;;;;6.50;4.97;;;22.90;73.60;;;;;;4971218;28;20093;-79
2022/08/13 11:12:36;;;;;;;5.82;4.95;;;22.90;73.50;;;;;;4978781;28;20062;-80
2022/08/13 11:15:04;;;;;;;5.70;5.25;;;22.90;73.50;;;;;;4978870;28;20393;-80
2022/08/13 11:17:29;;;;;;;5.03;4.63;;;22.90;73.50;;;;;;4971516;28;20078;-79
2022/08/13 11:19:56;;;;;;;6.13;4.38;;;22.90;73.70;;;;;;4973636;28;20031;-79
2022/08/13 11:22:28;;;;;;;5.88;5.38;;;22.90;73.70;;;;;;4975780;28;20026;-79
2022/08/13 11:25:03;;;;;;;5.20;4.80;;;22.90;73.50;;;;;;4976421;28;20441;-80
2022/08/13 11:27:32;;;;;;;5.45;4.60;;;22.90;73.50;;;;;;4980117;28;20472;-80
2022/08/13 11:29:58;;;;;;;4.70;4.30;;;22.90;73.40;;;;;;4976489;28;20034;-78
2022/08/13 11:32:24;;;;;;;5.35;4.85;;;22.90;73.40;;;;;;4978169;28;20035;-79
2022/08/13 11:34:50;;;;;;;5.50;5.00;;;22.90;73.50;;;;;;4992404;28;20105;-79
2022/08/13 11:37:15;;;;;;;6.13;5.47;;;22.90;72.90;;;;;;4989621;28;20106;-79
2022/08/13 11:39:41;;;;;;;5.55;5.15;;;22.90;73.10;;;;;;4976156;28;20031;-79
2022/08/13 11:42:07;;;;;;;5.32;4.93;;;22.90;73.10;;;;;;4979128;28;20102;-80
2022/08/13 11:44:33;;;;;;;6.38;5.65;;;22.90;73.40;;;;;;4978106;28;20225;-79
2022/08/13 11:46:58;;;;;;;5.35;4.80;;;22.90;73.20;;;;;;4982810;28;20142;-80
2022/08/13 11:49:24;;;;;;;5.90;5.22;;;22.90;72.80;;;;;;4987418;28;20030;-79
2022/08/13 11:51:50;;;;;;;5.00;4.60;;;22.90;73.10;;;;;;4983795;28;20031;-79
2022/08/13 11:54:18;;;;;;;6.10;5.50;;;22.90;73.20;;;;;;4977005;28;20031;-80
2022/08/13 11:56:44;;;;;;;6.60;5.90;;;23.00;73.40;;;;;;4980758;28;20122;-80
2022/08/13 11:59:10;;;;;;;9.38;5.55;;;22.90;73.40;;;;;;4971906;28;20081;-80
2022/08/13 12:01:36;;;;;;;5.55;5.05;;;23.00;73.30;;;;;;4995787;28;20505;-79
2022/08/13 12:04:02;;;;;;;6.47;5.18;;;22.90;73.20;;;;;;4986640;28;20027;-79
2022/08/13 12:06:28;;;;;;;5.57;5.03;;;22.90;73.60;;;;;;4981284;28;20453;-79
2022/08/13 12:08:54;;;;;;;4.97;4.57;;;22.90;73.40;;;;;;5002035;28;20052;-78
2022/08/13 12:11:20;;;;;;;5.35;4.57;;;22.90;73.40;;;;;;4984080;28;20062;-79
2022/08/13 12:13:45;;;;;;;6.10;5.57;;;22.90;73.50;;;;;;4981139;28;20046;-79
2022/08/13 12:16:11;;;;;;;5.47;4.97;;;22.90;73.60;;;;;;4971548;28;20022;-78
2022/08/13 12:18:37;;;;;;;6.22;5.63;;;22.90;73.70;;;;;;4975798;28;20023;-79
2022/08/13 12:21:03;;;;;;;11.73;6.35;;;22.90;73.70;;;;;;4976304;28;20033;-79
2022/08/13 12:23:28;;;;;;;5.03;4.57;;;22.90;73.60;;;;;;4980913;28;20031;-79
2022/08/13 12:25:54;;;;;;;5.82;4.50;;;22.90;73.70;;;;;;4969432;28;20054;-79
2022/08/13 12:28:25;;;;;;;4.90;4.20;;;22.90;73.70;;;;;;4976375;28;20485;-83
2022/08/13 12:30:56;;;;;;;5.03;3.13;;;23.10;72.30;;;;;;4977293;28;20054;-86
2022/08/13 12:33:22;;;;;;;2.95;2.55;;;23.90;68.90;;;;;;4987060;28;20027;-85
2022/08/13 12:35:49;;;;;;;6.05;1.80;;;24.70;66.10;;;;;;4979321;28;20598;-86
2022/08/13 12:38:15;;;;;;;2.70;1.48;;;25.50;64.30;;;;;;4984695;28;20089;-85
2022/08/13 12:40:43;;;;;;;2.00;1.40;;;26.40;63.10;;;;;;4969198;28;20042;-85
2022/08/13 12:43:09;;;;;;;2.40;1.30;;;27.00;61.40;;;;;;4981943;28;20061;-86
2022/08/13 12:45:37;;;;;;;1.45;1.23;;;27.60;59.50;;;;;;4978534;28;20031;-86
2022/08/13 12:48:07;;;;;;;3.47;1.30;;;27.80;60.10;;;;;;4980475;28;20073;-86
2022/08/13 12:50:38;;;;;;;3.20;1.30;;;27.90;59.10;;;;;;4980381;28;20022;-86
2022/08/13 12:53:05;;;;;;;2.45;1.35;;;28.20;59.40;;;;;;4974041;28;20038;-86
2022/08/13 12:55:32;;;;;;;2.45;1.42;;;28.20;59.00;;;;;;4976669;28;20401;-87
2022/08/13 12:57:58;;;;;;;1.58;1.20;;;28.40;58.20;;;;;;4973477;28;20026;-86
2022/08/13 13:00:29;;;;;;;2.28;1.30;;;28.60;58.00;;;;;;4981937;28;20500;-87
2022/08/13 13:02:54;;;;;;;1.60;1.15;;;28.60;58.30;;;;;;4980437;28;20026;-87
2022/08/13 13:05:20;;;;;;;7.90;1.45;;;28.60;58.30;;;;;;4982860;28;20031;-86
2022/08/13 13:07:48;;;;;;;5.72;1.30;;;28.60;57.90;;;;;;4978779;28;20026;-87
2022/08/13 13:10:16;;;;;;;3.65;1.20;;;28.60;57.60;;;;;;4972333;28;20033;-87
2022/08/13 13:12:42;;;;;;;2.03;1.00;;;28.50;56.80;;;;;;4970765;28;20035;-88